Historyczne dane pomiarowe

Dodano dane terminowe – wersja testowa.

Dane z okresu 1951-2018

Wersja bazy: 1.27 [2018-11-28, lista zmian], aktualizacja planowana na 2018-12-07

Dane meteo z obszaru Polski uzyskane na podstawie danych udostępnionych przez Instytut Meteorologii i Gospodarki Wodnej – Państwowy Instytut Badawczy.

 

Wybierz Datę:    

       

TemperaturaWilgotnośćWiatrCiśnienieOpadyŚniegCzas trwania zjawisk
 Stacja t tx tn tng RH VA  wxwx mslp ppp RRR   cm mm wxwxwxwxwxwxwx
1980-11-08 -2.5 -0.7 -3.0- 94.3- 8.0 3.0---- 0.0------------
1980-11-09 -0.8 0.9 -2.5- 94.5- 8.0 5.7---- 1.4------------
1980-11-10 -1.7 0.8 -3.0- 91.8- 4.3 2.3---- 0.0-- 1---------
1980-11-11 -3.2 -0.1 -7.9- 89.3- 7.7 3.7---- 0.0------------
1980-11-12 0.0 1.0 -0.5- 91.5- 8.0 6.3---- 3.4------------
1980-11-13 1.8 2.9 0.7- 94.5- 6.0 5.0---- 3.0------------
1980-11-14 3.7 5.4 1.2- 90.0- 7.7 7.0---- 5.0------------
1980-11-15 2.8 4.3 1.4- 97.8- 8.0 4.3---- 13.5------------
1980-11-16 8.8 11.8 4.0- 94.8- 8.0 5.0---- 5.0------------
1980-11-17 10.7 11.4 10.0- 90.8- 7.3 6.3---- 0.3------------
1980-11-18 9.0 11.0 7.1- 84.5- 5.3 9.0---- 4.2------------
1980-11-19 3.3 7.1 1.1- 84.3- 3.3 9.3---- 0.3------------
1980-11-20 0.3 1.7 -1.1- 95.3- 7.3 3.7---- 0.9------------
1980-11-21 7.0 10.6 1.6- 87.8- 7.0 5.0---- 0.5------------
1980-11-22 9.0 10.3 7.8- 91.3- 7.0 5.7---- 2.6------------
1980-11-23 11.0 11.8 10.2- 94.0- 8.0 7.0---- 2.4------------
1980-11-24 10.6 11.9 9.0- 91.3- 7.3 5.0---- 3.6------------
1980-11-25 8.8 11.7 4.4- 93.3- 5.0 3.7---- 1.8------------
1980-11-26 3.8 5.5 0.6- 89.0- 6.0 9.3---- 0.4------------
1980-11-27 -1.4 0.8 -3.4- 91.8- 3.0 4.3---- 0.0------------
1980-11-28 -1.7 -0.4 -3.0- 85.5- 6.7 1.3---- 0.0------------
1980-11-29 0.0 1.3 -2.0- 91.8- 7.0 1.7---- 0.3------------
1980-11-30 -1.2 1.2 -3.3- 72.8- 1.7 4.3---- 0.0------------
1980-12-01 -4.4 -0.4 -8.2- 90.3- 2.0 1.0---- 0.0------------
1980-12-02 -4.1 -3.1 -4.8- 89.5- 7.3 8.3---- 1.3------------
1980-12-03 -2.3 -0.6 -4.8- 93.8- 6.0 6.3---- 6.2-- 1---------
1980-12-04 -6.3 -3.1 -8.4- 89.3- 6.3 4.3---- 6.6-- 7---------
1980-12-05 -6.8 -3.7-12.2- 95.8- 5.3 4.7---- 2.6-- 13---------
1980-12-06-11.9 -8.1-20.5- 91.5- 5.3 3.7---- 0.0-- 16---------
1980-12-07-12.5 -7.1-21.6- 90.0- 5.3 1.3---- 0.5-- 16---------
520.4 ms

 

Źródłem pochodzenia danych jest Instytut Meteorologii i Gospodarki Wodnej – Państwowy Instytut Badawczy. Dane Instytutu Meteorologii i Gospodarki Wodnej – Państwowego Instytutu Badawczego zostały przetworzone.

Dane źródłowe można odnaleźć na stronie https://dane.imgw.pl